AirNav   Phillips 66 Aviation Fuel
 
 905 users online  

T50 Menard County Airport
Menard, Texas, USA

GOING TO MENARD?


FAA INFORMATION EFFECTIVE 26 APRIL 2018

Location

FAA Identifier: T50
Lat/Long: 30-55-56.9000N / 099-48-33.2200W
30-55.948333N / 099-48.553667W
30.9324722 / -99.8092278
(estimated)
Elevation: 1933 ft. / 589 m (estimated)
Variation: 08E (1985)
From city: 3 miles NW of MENARD, TX
Time zone: UTC -5 (UTC -6 during Standard Time)
Zip code: 76859

Airport Operations

Airport use: Open to the public
Activation date: 11/1959
Control tower: no
ARTCC: HOUSTON CENTER
FSS: SAN ANGELO FLIGHT SERVICE STATION
NOTAMs facility: SJT (NOTAM-D service available)
Attendance: UNATNDD
Wind indicator: lighted
Segmented circle: yes
Lights: MIRL RY 15/33 PRESET LOW INTST; TO INCR INTST ACTVT CTAF. PAPI RYS 15 & 33 OPERATES CONTINUOUSLY.
Beacon: white-green (lighted land airport)
Operates sunset to sunrise.

Airport Communications

CTAF: 122.9

Nearby radio navigation aids

VOR radial/distance  VOR name  Freq  Var
JCTr353/20.1JUNCTION VORTAC116.0008E

 
NDB name  Hdg/Dist  Freq  Var  ID
BRADY233/29.038007EBBD -... -... -..

Airport Services

Parking: tiedowns
Airframe service: NONE
Powerplant service: NONE
Bottled oxygen: NONE
Bulk oxygen: NONE

Runway Information

Runway 15/33

Dimensions: 4100 x 60 ft. / 1250 x 18 m
Surface: asphalt, in fair condition
Weight bearing capacity: 
Single wheel: 12.5
Runway edge lights: medium intensity
Runway edge markings: MARKINGS FADED.
RUNWAY 15  RUNWAY 33
Latitude: 30-56.254000N30-55.642667N
Longitude: 099-48.721333W099-48.386000W
Elevation: 1933.0 ft.1915.0 ft.
Gradient: 0.4%0.4%
Traffic pattern: leftleft
Displaced threshold: 480 ft.no
Markings: basic, in poor conditionbasic, in poor condition
Visual slope indicator: 2-light PAPI on left (3.00 degrees glide path)
PAPI OUT OF SERVICE
2-light PAPI on left (3.00 degrees glide path)
PAPI OTS.
Touchdown point: yes, no lightsyes, no lights
Obstructions: 18 ft. brush, 200 ft. from runway
10' FENCE 135' FROM THR, 11 FT DIRT MOUND AT THLD - 161 FT R, + 18 FT TREES AND BRUSH 135 FT - 200 FT FM THLD ACROSS APPROACH, 9 FT DEBRIS PILE 80 FT FM THLD - 189 FT R.
15 ft. road, 380 ft. from runway, 141 ft. left of centerline, 12:1 slope to clear

Airport Ownership and Management from official FAA records

Ownership: Publicly-owned
Owner: MENARD COUNTY
PO BOX 1038
MENARD, TX 76859
Phone 325-396-4789
Manager: RICHARD CORDES
PO BOX 1038
MENARD, TX 76859
Phone 325-396-4789
COUNTY JUDGE.

Airport Operational Statistics

Aircraft based on the field: 1
Single engine airplanes: 1
    
Aircraft operations: avg 39/month *
67% transient general aviation
33% local general aviation
* for 12-month period ending 01 September 2017

Additional Remarks

BIRDS ON & INVOF ARPT (SEASONAL).

Instrument Procedures

There are no published instrument procedures at T50.

Some nearby airports with instrument procedures:

KJCT - Kimble County Airport (25 nm S)
KBBD - Curtis Field Airport (29 nm NE)
T92 - Mason County Airport (34 nm E)
KSJT - San Angelo Regional Airport/Mathis Field (44 nm NW)
E30 - Bruce Field Airport (45 nm N)
 
Loc | Ops | Rwys | IFR | FBO | Links
Com | Nav | Svcs | Stats | Notes

AirNav Hotels Sweepstakes
 
Area around T50 (Menard County Airport)
 
Road maps at: MapQuest Bing Google
 
Aerial photo
WARNING: Photo may not be current or correct
Aerial photo of T50 (Menard County Airport)
Photo by Marca Porter
Photo taken 04-Jul-2008

Do you have a better or more recent aerial photo of Menard County Airport that you would like to share? If so, please send us your photo.

 
Sectional chart

 
Airport distance calculator
Flying to Menard County Airport? Find the distance to fly.

From to T50

Sunrise and sunset
Times for 22-May-2018
 Local
(UTC-5)
 Zulu
(UTC)
Morning civil twilight06:1411:14
Sunrise06:4111:41
Sunset20:3101:31
Evening civil twilight20:5801:58

Current date and time
Zulu (UTC)  22-May-2018 12:10:44
Local (UTC-5)  22-May-2018 07:10:44
 
METAR
KJCT 
26nm S 
221151Z AUTO 09003KT 8SM FEW021 20/19 A3002 RMK AO2 SLP129 T02000189 10222 20200 51012
KBBD 
29nm NE 
221155Z AUTO 16005KT 9SM BKN015 19/18 A3004 RMK AO2
KSJT 
44nm NW 
221151Z 28003KT 10SM OVC012 19/18 A3003 RMK AO2 SLP147 T01890178 10206 20178 53021
KSOA 
48nm SW 
221155Z AUTO 00000KT 10SM CLR 20/18 A3007 RMK AO2
TAF
KJCT 
26nm S 
221120Z 2212/2312 13005KT P6SM OVC015 FM221800 14009KT P6SM BKN050 FM222200 13006KT P6SM BKN250 FM230900 14003KT P6SM BKN015
KBBD 
29nm NE 
221120Z 2212/2312 15006KT P6SM BKN012 TEMPO 2212/2214 BKN007 FM221400 14007KT P6SM OVC025 FM221800 13009KT P6SM BKN050 FM222100 13008KT P6SM BKN250 FM231000 VRB04KT P6SM BKN015
NOTAMs
Click for the latest NOTAMs
NOTAMs are issued by the DoD/FAA and will open in a separate window not controlled by AirNav.

 

 
 

Would you like to see your business listed on this page?

 If your business provides an interesting product or service to pilots, flight crews, aircraft, or users of the Menard County Airport, you should consider listing it here.  To start the listing process, click on the button below
 
Add a business
 

Other Pages about Menard County Airport

Update a link
 
Copyright © AirNav, LLC. All rights reserved. Privacy Policy  Contact